createdAt,value
2022-12-22T00:00:02.195Z,30.50
2022-12-22T00:02:52.377Z,30.60
2022-12-22T00:05:43.391Z,34.60
2022-12-22T00:08:32.779Z,33.50
2022-12-22T00:11:25.627Z,33.30
2022-12-22T00:14:15.028Z,28.90
2022-12-22T00:17:05.005Z,34.40
2022-12-22T00:19:55.171Z,32.80
2022-12-22T00:22:45.553Z,32.90
2022-12-22T00:25:37.320Z,38.10
2022-12-22T00:28:33.618Z,35.80
2022-12-22T00:31:23.580Z,33.10
2022-12-22T00:34:12.848Z,31.30
2022-12-22T00:37:02.501Z,36.90
2022-12-22T00:39:52.194Z,30.10
2022-12-22T00:42:41.541Z,30.90
2022-12-22T00:45:31.482Z,32.60
2022-12-22T00:48:21.515Z,32.60
2022-12-22T00:51:11.052Z,32.20
2022-12-22T00:54:00.584Z,34.10
2022-12-22T00:56:50.076Z,28.50
2022-12-22T00:59:39.774Z,31.40
2022-12-22T01:02:29.269Z,30.20
2022-12-22T01:05:19.272Z,28.40
2022-12-22T01:08:08.908Z,30.70
2022-12-22T01:10:58.690Z,34.10
2022-12-22T01:13:48.206Z,33.20
2022-12-22T01:16:38.393Z,30.20
2022-12-22T01:19:28.186Z,31.80
2022-12-22T01:22:18.092Z,33.60
2022-12-22T01:25:07.805Z,30.90
2022-12-22T01:27:57.677Z,27.60
2022-12-22T01:30:47.233Z,34.00
2022-12-22T01:33:36.751Z,32.90
2022-12-22T01:36:27.313Z,30.30
2022-12-22T01:39:16.880Z,29.60
2022-12-22T01:42:08.067Z,28.10
2022-12-22T01:44:57.464Z,28.20
2022-12-22T01:47:55.856Z,30.10
2022-12-22T01:50:52.871Z,25.70
2022-12-22T01:53:47.979Z,31.50
2022-12-22T01:56:38.268Z,27.20
2022-12-22T01:59:27.985Z,26.70
2022-12-22T02:02:20.236Z,29.80
2022-12-22T02:05:13.199Z,32.10
2022-12-22T02:08:15.181Z,25.30
2022-12-22T02:11:24.401Z,25.90
2022-12-22T02:14:29.616Z,24.90
2022-12-22T02:17:30.406Z,21.70
2022-12-22T02:20:59.888Z,24.90
2022-12-22T02:24:11.341Z,23.40
2022-12-22T02:27:04.328Z,15.90
2022-12-22T02:29:56.319Z,20.20
2022-12-22T02:32:46.201Z,18.90
2022-12-22T02:35:36.714Z,23.20
2022-12-22T02:38:36.735Z,19.20
2022-12-22T02:41:52.949Z,22.60
2022-12-22T02:44:54.323Z,20.40
2022-12-22T02:47:53.824Z,23.80
2022-12-22T02:50:50.256Z,25.80
2022-12-22T02:53:41.135Z,23.50
2022-12-22T02:56:32.277Z,20.50
2022-12-22T02:59:21.767Z,21.00
2022-12-22T03:02:11.312Z,20.80
2022-12-22T03:05:01.197Z,22.00
2022-12-22T03:07:50.573Z,19.60
2022-12-22T03:10:40.030Z,18.30
2022-12-22T03:13:29.571Z,17.10
2022-12-22T03:16:19.153Z,14.10
2022-12-22T03:19:08.998Z,18.70
2022-12-22T03:21:58.568Z,18.30
2022-12-22T03:24:48.195Z,18.80
2022-12-22T03:27:19.985Z,19.40
2022-12-22T03:29:51.837Z,18.50
2022-12-22T03:32:23.642Z,19.30
2022-12-22T03:34:55.718Z,19.00
2022-12-22T03:37:27.557Z,22.50
2022-12-22T03:39:59.437Z,20.30
2022-12-22T03:42:48.852Z,21.50
2022-12-22T03:45:38.172Z,20.70
2022-12-22T03:48:10.124Z,20.00
2022-12-22T03:50:41.986Z,21.70
2022-12-22T03:53:13.813Z,22.80
2022-12-22T03:55:45.625Z,19.80
2022-12-22T03:58:17.656Z,18.70
2022-12-22T04:00:49.567Z,19.30
2022-12-22T04:03:21.567Z,23.00
2022-12-22T04:05:53.305Z,20.40
2022-12-22T04:08:25.040Z,18.10
2022-12-22T04:11:14.673Z,21.60
2022-12-22T04:13:46.495Z,18.00
2022-12-22T04:16:18.411Z,20.00
2022-12-22T04:18:50.253Z,21.20
2022-12-22T04:21:22.055Z,22.20
2022-12-22T04:23:53.879Z,20.40
2022-12-22T04:26:27.788Z,24.90
2022-12-22T04:28:59.598Z,19.70
2022-12-22T04:31:31.437Z,26.90
2022-12-22T04:34:05.318Z,26.40
2022-12-22T04:36:37.072Z,23.80
2022-12-22T04:39:08.939Z,25.00
2022-12-22T04:41:42.841Z,25.80
2022-12-22T04:44:14.913Z,27.00
2022-12-22T04:46:47.483Z,24.80
2022-12-22T04:49:19.206Z,25.20
2022-12-22T04:51:51.033Z,24.70
2022-12-22T04:54:23.091Z,23.60
2022-12-22T04:56:56.015Z,24.20
2022-12-22T04:59:27.982Z,24.60
2022-12-22T05:01:59.944Z,25.10
2022-12-22T05:04:32.356Z,24.30
2022-12-22T05:07:04.306Z,22.50
2022-12-22T05:09:36.181Z,23.80
2022-12-22T05:12:22.817Z,23.10
2022-12-22T05:14:54.590Z,25.90
2022-12-22T05:17:26.394Z,25.40
2022-12-22T05:19:58.138Z,26.40
2022-12-22T05:22:30.126Z,28.10
2022-12-22T05:25:01.931Z,28.60
2022-12-22T05:27:33.680Z,28.20
2022-12-22T05:30:08.522Z,27.10
2022-12-22T05:32:40.644Z,24.50
2022-12-22T05:35:13.286Z,24.10
2022-12-22T05:37:45.486Z,25.30
2022-12-22T05:40:17.333Z,20.20
2022-12-22T05:42:49.091Z,22.40
2022-12-22T05:45:22.378Z,20.30
2022-12-22T05:47:58.651Z,26.00
2022-12-22T05:50:31.908Z,25.20
2022-12-22T05:53:03.599Z,20.90
2022-12-22T05:55:35.622Z,21.00
2022-12-22T05:58:07.461Z,20.00
2022-12-22T06:00:39.286Z,20.30
2022-12-22T06:03:11.228Z,32.30
2022-12-22T06:05:43.098Z,23.30
2022-12-22T06:08:14.833Z,25.40
2022-12-22T06:10:46.622Z,23.80
2022-12-22T06:13:18.696Z,26.70
2022-12-22T06:15:50.678Z,24.90
2022-12-22T06:18:23.308Z,24.90
2022-12-22T06:20:56.003Z,24.60
2022-12-22T06:23:27.794Z,25.30
2022-12-22T06:26:01.708Z,23.10
2022-12-22T06:28:34.195Z,28.30
2022-12-22T06:31:06.385Z,31.30
2022-12-22T06:33:38.327Z,27.10
2022-12-22T06:36:11.628Z,24.50
2022-12-22T06:38:43.556Z,23.90
2022-12-22T06:41:15.393Z,27.70
2022-12-22T06:43:47.311Z,25.30
2022-12-22T06:46:19.224Z,29.10
2022-12-22T06:48:51.244Z,30.70
2022-12-22T06:51:23.124Z,35.90
2022-12-22T06:53:54.881Z,31.90
2022-12-22T06:56:26.711Z,22.50
2022-12-22T06:58:58.760Z,23.80
2022-12-22T07:01:31.011Z,24.40
2022-12-22T07:04:03.166Z,25.80
2022-12-22T07:06:34.915Z,21.70
2022-12-22T07:09:06.819Z,26.30
2022-12-22T07:11:39.714Z,25.20
2022-12-22T07:14:13.241Z,23.40
2022-12-22T07:16:45.763Z,25.90
2022-12-22T07:19:17.715Z,26.50
2022-12-22T07:21:51.381Z,25.90
2022-12-22T07:26:56.699Z,32.50
2022-12-22T07:29:28.507Z,28.70
2022-12-22T07:32:00.244Z,30.30
2022-12-22T07:34:32.031Z,34.50
2022-12-22T07:37:03.806Z,33.10
2022-12-22T07:39:35.681Z,31.80
2022-12-22T07:42:36.874Z,35.90
2022-12-22T07:45:10.725Z,35.50
2022-12-22T07:47:43.092Z,39.50
2022-12-22T07:50:29.033Z,36.20
2022-12-22T07:53:02.724Z,41.00
2022-12-22T07:58:08.307Z,33.70
2022-12-22T08:00:40.191Z,38.50
2022-12-22T08:03:13.148Z,33.50
2022-12-22T08:08:17.241Z,32.60
2022-12-22T08:10:49.110Z,31.00
2022-12-22T08:13:21.402Z,38.50
2022-12-22T08:15:53.385Z,38.00
2022-12-22T08:18:25.224Z,36.70
2022-12-22T08:20:56.979Z,38.70
2022-12-22T08:23:29.028Z,36.20
2022-12-22T08:26:06.864Z,41.60
2022-12-22T08:28:45.502Z,41.90
2022-12-22T08:31:17.923Z,44.20
2022-12-22T08:33:49.919Z,38.40
2022-12-22T08:36:22.592Z,43.40
2022-12-22T08:38:54.580Z,44.10
2022-12-22T08:41:40.350Z,49.60
2022-12-22T08:44:12.511Z,50.80
2022-12-22T08:46:44.313Z,54.40
2022-12-22T08:49:17.026Z,51.80
2022-12-22T08:51:49.540Z,49.00
2022-12-22T08:54:21.983Z,47.90
2022-12-22T08:56:54.688Z,43.30
2022-12-22T08:59:26.532Z,48.70
2022-12-22T09:01:58.481Z,41.60
2022-12-22T09:04:30.375Z,36.80
2022-12-22T09:07:03.671Z,33.50
2022-12-22T09:09:36.542Z,37.90
2022-12-22T09:12:09.447Z,34.80
2022-12-22T09:14:42.300Z,40.10
2022-12-22T09:17:14.097Z,44.70
2022-12-22T09:19:45.925Z,49.00
2022-12-22T09:22:23.351Z,47.80
2022-12-22T09:24:59.967Z,51.40
2022-12-22T09:27:32.768Z,56.60
2022-12-22T09:30:05.049Z,51.50
2022-12-22T09:32:36.837Z,45.10
2022-12-22T09:35:09.899Z,48.80
2022-12-22T09:37:41.693Z,45.70
2022-12-22T09:40:14.995Z,38.30
2022-12-22T09:42:46.788Z,29.80
2022-12-22T09:45:21.070Z,28.40
2022-12-22T09:47:57.419Z,28.40
2022-12-22T09:50:32.793Z,27.60
2022-12-22T09:53:06.583Z,26.90
2022-12-22T09:55:43.890Z,28.30
2022-12-22T09:58:27.335Z,27.50
2022-12-22T10:01:08.568Z,29.20
2022-12-22T10:03:48.432Z,30.90
2022-12-22T10:06:27.994Z,28.60
2022-12-22T10:09:45.762Z,26.60
2022-12-22T10:12:14.544Z,26.90
2022-12-22T10:14:48.301Z,29.30
2022-12-22T10:17:28.199Z,30.90
2022-12-22T10:20:29.792Z,29.20
2022-12-22T10:23:06.780Z,30.50
2022-12-22T10:28:41.609Z,34.80
2022-12-22T10:31:21.300Z,31.90
2022-12-22T10:33:57.783Z,29.20
2022-12-22T10:36:32.473Z,18.30
2022-12-22T10:39:07.449Z,17.40
2022-12-22T10:41:43.018Z,18.80
2022-12-22T10:44:24.020Z,21.90
2022-12-22T10:46:57.752Z,27.60
2022-12-22T10:52:16.172Z,25.90
2022-12-22T10:54:48.861Z,28.30
2022-12-22T10:57:31.860Z,27.60
2022-12-22T11:00:22.992Z,22.50
2022-12-22T11:02:56.269Z,19.40
2022-12-22T11:08:02.233Z,73.70
2022-12-22T11:10:39.889Z,152.60
2022-12-22T11:13:30.793Z,16.30
2022-12-22T11:16:10.743Z,17.00
2022-12-22T11:18:55.876Z,19.20
2022-12-22T11:21:37.368Z,16.50
2022-12-22T11:24:27.265Z,16.70
2022-12-22T11:27:07.899Z,19.50
2022-12-22T11:30:01.300Z,21.00
2022-12-22T11:32:54.063Z,18.90
2022-12-22T11:35:35.868Z,19.30
2022-12-22T11:38:20.308Z,18.20
2022-12-22T11:41:14.864Z,17.70
2022-12-22T11:44:04.467Z,18.20
2022-12-22T11:46:47.402Z,17.70
2022-12-22T11:49:41.563Z,21.50
2022-12-22T11:52:30.258Z,18.70
2022-12-22T11:55:12.653Z,23.20
2022-12-22T11:58:00.210Z,23.80
2022-12-22T12:01:12.671Z,18.90
2022-12-22T12:03:53.357Z,21.10
2022-12-22T12:06:41.120Z,19.00
2022-12-22T12:09:30.546Z,20.90
2022-12-22T12:12:13.788Z,25.00
2022-12-22T12:14:56.213Z,26.40
2022-12-22T12:17:40.310Z,21.80
2022-12-22T12:20:35.000Z,24.90
2022-12-22T12:23:21.067Z,33.80
2022-12-22T12:26:02.240Z,32.30
2022-12-22T12:28:45.041Z,29.30
2022-12-22T12:31:24.477Z,25.10
2022-12-22T12:34:02.222Z,27.70
2022-12-22T12:36:39.307Z,29.60
2022-12-22T12:39:17.469Z,28.10
2022-12-22T12:42:00.384Z,27.30
2022-12-22T12:44:36.495Z,23.80
2022-12-22T12:47:22.127Z,27.40
2022-12-22T12:50:33.213Z,28.60
2022-12-22T12:53:09.946Z,22.50
2022-12-22T12:56:11.188Z,21.00
2022-12-22T12:58:58.188Z,29.10
2022-12-22T13:01:57.497Z,25.50
2022-12-22T13:05:12.254Z,32.30
2022-12-22T13:08:18.745Z,28.90
2022-12-22T13:12:10.007Z,34.90
2022-12-22T13:14:53.116Z,23.70
2022-12-22T13:20:22.328Z,28.50
2022-12-22T13:22:57.024Z,30.60
2022-12-22T13:25:40.818Z,25.90
2022-12-22T13:28:18.453Z,27.90
2022-12-22T13:30:55.256Z,27.80
2022-12-22T13:33:30.395Z,25.30
2022-12-22T13:36:04.271Z,27.30
2022-12-22T13:38:38.416Z,29.60
2022-12-22T13:41:24.725Z,32.30
2022-12-22T13:44:05.866Z,26.80
2022-12-22T13:46:39.096Z,23.30
2022-12-22T13:49:30.222Z,27.70
2022-12-22T13:52:13.748Z,27.30
2022-12-22T13:54:47.128Z,27.10
2022-12-22T13:57:22.195Z,30.20
2022-12-22T13:59:55.120Z,33.00
2022-12-22T14:02:34.248Z,29.80
2022-12-22T14:05:10.630Z,29.90
2022-12-22T14:07:58.842Z,34.20
2022-12-22T14:10:36.292Z,32.00
2022-12-22T14:13:16.843Z,33.30
2022-12-22T14:15:49.827Z,24.00
2022-12-22T14:18:26.714Z,31.50
2022-12-22T14:21:00.400Z,25.40
2022-12-22T14:26:09.358Z,20.50
2022-12-22T14:28:50.493Z,25.10
2022-12-22T14:31:22.809Z,21.60
2022-12-22T14:33:56.727Z,22.40
2022-12-22T14:36:53.842Z,22.80
2022-12-22T14:39:31.219Z,26.00
2022-12-22T14:42:06.109Z,23.80
2022-12-22T14:44:44.662Z,26.20
2022-12-22T14:47:27.232Z,26.90
2022-12-22T14:50:02.682Z,27.50
2022-12-22T14:52:39.705Z,27.50
2022-12-22T14:55:38.149Z,30.90
2022-12-22T14:58:20.276Z,28.90
2022-12-22T15:01:18.225Z,29.60
2022-12-22T15:04:22.016Z,27.90
2022-12-22T15:07:05.702Z,30.10
2022-12-22T15:10:13.689Z,35.00
2022-12-22T15:12:29.464Z,37.60
2022-12-22T15:15:03.835Z,41.60
2022-12-22T15:17:36.712Z,36.70
2022-12-22T15:20:16.587Z,39.20
2022-12-22T15:22:48.370Z,35.70
2022-12-22T15:25:22.503Z,39.40
2022-12-22T15:27:54.333Z,37.30
2022-12-22T15:30:30.013Z,48.30
2022-12-22T15:33:02.259Z,79.10
2022-12-22T15:35:36.926Z,47.70
2022-12-22T15:38:15.625Z,37.00
2022-12-22T15:40:48.539Z,40.60
2022-12-22T15:46:19.063Z,43.80
2022-12-22T15:48:51.422Z,47.50
2022-12-22T15:51:27.611Z,56.10
2022-12-22T15:54:00.615Z,58.20
2022-12-22T15:56:34.233Z,89.90
2022-12-22T16:01:36.459Z,57.80
2022-12-22T16:04:08.516Z,44.30
2022-12-22T16:06:41.059Z,47.80
2022-12-22T16:09:21.977Z,50.20
2022-12-22T16:11:53.883Z,53.10
2022-12-22T16:14:26.324Z,33.20
2022-12-22T16:16:58.163Z,30.10
2022-12-22T16:19:29.975Z,28.70
2022-12-22T16:22:02.453Z,23.90
2022-12-22T16:24:37.081Z,25.20
2022-12-22T16:27:10.783Z,25.80
2022-12-22T16:29:44.893Z,26.50
2022-12-22T16:32:42.272Z,21.40
2022-12-22T16:35:22.787Z,20.80
2022-12-22T16:37:56.245Z,20.80
2022-12-22T16:40:29.901Z,20.60
2022-12-22T16:45:55.186Z,22.50
2022-12-22T16:48:33.700Z,17.80
2022-12-22T16:51:05.890Z,21.90
2022-12-22T16:53:37.725Z,24.00
2022-12-22T16:56:15.472Z,21.90
2022-12-22T16:58:48.537Z,25.50
2022-12-22T17:01:31.740Z,22.40
2022-12-22T17:04:09.014Z,26.90
2022-12-22T17:06:42.443Z,25.00
2022-12-22T17:09:18.440Z,23.10
2022-12-22T17:11:51.052Z,26.30
2022-12-22T17:14:31.644Z,24.80
2022-12-22T17:17:04.756Z,24.90
2022-12-22T17:19:36.514Z,23.00
2022-12-22T17:22:29.376Z,26.20
2022-12-22T17:25:04.120Z,22.10
2022-12-22T17:27:36.368Z,21.30
2022-12-22T17:30:18.402Z,26.20
2022-12-22T17:32:52.966Z,26.30
2022-12-22T17:35:28.922Z,20.90
2022-12-22T17:38:01.614Z,25.10
2022-12-22T17:40:34.402Z,24.40
2022-12-22T17:43:06.398Z,23.80
2022-12-22T17:45:38.200Z,20.50
2022-12-22T17:48:12.363Z,22.10
2022-12-22T17:50:47.855Z,23.70
2022-12-22T17:53:22.025Z,24.00
2022-12-22T17:56:09.616Z,22.00
2022-12-22T17:58:45.937Z,22.00
2022-12-22T18:01:26.318Z,21.40
2022-12-22T18:03:58.997Z,20.70
2022-12-22T18:06:35.772Z,17.40
2022-12-22T18:09:08.280Z,20.30
2022-12-22T18:11:45.667Z,23.30
2022-12-22T18:14:19.548Z,20.70
2022-12-22T18:16:51.505Z,23.90
2022-12-22T18:19:23.366Z,23.50
2022-12-22T18:21:55.641Z,21.50
2022-12-22T18:24:27.402Z,22.70
2022-12-22T18:27:00.437Z,22.00
2022-12-22T18:29:32.663Z,22.90
2022-12-22T18:32:04.850Z,22.60
2022-12-22T18:34:36.689Z,26.60
2022-12-22T18:37:14.636Z,20.80
2022-12-22T18:39:47.529Z,24.40
2022-12-22T18:42:23.682Z,24.50
2022-12-22T18:44:55.417Z,23.50
2022-12-22T18:47:27.218Z,26.50
2022-12-22T18:50:03.923Z,24.20
2022-12-22T18:52:35.792Z,24.40
2022-12-22T18:55:11.259Z,22.80
2022-12-22T18:57:45.583Z,27.50
2022-12-22T19:00:21.439Z,24.90
2022-12-22T19:02:56.181Z,21.10
2022-12-22T19:05:29.866Z,26.50
2022-12-22T19:08:02.397Z,29.20
2022-12-22T19:10:38.333Z,27.10
2022-12-22T19:13:24.058Z,24.90
2022-12-22T19:15:56.547Z,26.40
2022-12-22T19:18:30.223Z,25.50
2022-12-22T19:23:32.118Z,27.90
2022-12-22T19:26:08.940Z,50.20
2022-12-22T19:28:44.724Z,26.40
2022-12-22T19:31:24.425Z,23.50
2022-12-22T19:33:58.628Z,35.80
2022-12-22T19:36:33.506Z,25.30
2022-12-22T19:39:06.138Z,32.20
2022-12-22T19:41:44.825Z,28.00
2022-12-22T19:44:21.258Z,33.10
2022-12-22T19:46:54.597Z,27.00
2022-12-22T19:49:28.963Z,25.90
2022-12-22T19:52:01.348Z,24.40
2022-12-22T19:54:33.443Z,28.10
2022-12-22T19:57:07.463Z,28.40
2022-12-22T19:59:42.150Z,30.70
2022-12-22T20:02:28.147Z,31.60
2022-12-22T20:05:01.491Z,28.90
2022-12-22T20:07:37.063Z,30.40
2022-12-22T20:10:11.011Z,28.30
2022-12-22T20:12:45.193Z,27.50
2022-12-22T20:15:21.058Z,30.60
2022-12-22T20:17:55.598Z,32.60
2022-12-22T20:20:32.583Z,28.30
2022-12-22T20:23:11.359Z,30.10
2022-12-22T20:25:45.072Z,29.60
2022-12-22T20:28:20.310Z,27.60
2022-12-22T20:30:53.479Z,26.60
2022-12-22T20:33:26.700Z,27.60
2022-12-22T20:36:00.454Z,34.50
2022-12-22T20:38:36.484Z,28.60
2022-12-22T20:41:10.899Z,27.60
2022-12-22T20:43:43.226Z,27.10
2022-12-22T20:46:19.485Z,30.20
2022-12-22T20:48:53.895Z,29.80
2022-12-22T20:51:28.313Z,29.20
2022-12-22T20:54:00.616Z,31.30
2022-12-22T20:56:34.759Z,26.70
2022-12-22T20:59:19.531Z,30.30
2022-12-22T21:01:53.402Z,27.20
2022-12-22T21:04:25.633Z,31.20
2022-12-22T21:06:59.066Z,31.60
2022-12-22T21:09:30.932Z,30.60
2022-12-22T21:12:02.730Z,31.00
2022-12-22T21:14:36.492Z,27.60
2022-12-22T21:17:13.009Z,27.50
2022-12-22T21:19:44.805Z,26.90
2022-12-22T21:22:16.734Z,27.50
2022-12-22T21:24:48.552Z,24.80
2022-12-22T21:27:22.659Z,28.00
2022-12-22T21:29:54.398Z,28.90
2022-12-22T21:32:26.290Z,30.30
2022-12-22T21:35:05.869Z,26.40
2022-12-22T21:37:40.008Z,28.80
2022-12-22T21:40:22.838Z,23.00
2022-12-22T21:42:56.667Z,28.80
2022-12-22T21:45:32.070Z,26.70
2022-12-22T21:48:03.957Z,28.10
2022-12-22T21:50:37.071Z,24.60
2022-12-22T21:53:19.754Z,23.90
2022-12-22T21:55:53.956Z,24.60
2022-12-22T21:58:25.678Z,25.10
2022-12-22T22:00:57.604Z,22.10
2022-12-22T22:03:30.082Z,21.70
2022-12-22T22:06:01.932Z,21.80
2022-12-22T22:08:33.819Z,21.60
2022-12-22T22:11:29.066Z,26.10
2022-12-22T22:14:00.997Z,24.50
2022-12-22T22:16:32.988Z,27.40
2022-12-22T22:19:04.914Z,23.00
2022-12-22T22:21:36.607Z,28.20
2022-12-22T22:24:09.313Z,26.10
2022-12-22T22:26:41.225Z,23.70
2022-12-22T22:29:12.991Z,23.00
2022-12-22T22:31:44.883Z,25.80
2022-12-22T22:34:16.913Z,22.40
2022-12-22T22:36:48.693Z,22.80
2022-12-22T22:39:20.460Z,22.30
2022-12-22T22:41:52.228Z,21.70
2022-12-22T22:44:24.386Z,23.80
2022-12-22T22:46:56.117Z,22.70
2022-12-22T22:49:29.010Z,22.20
2022-12-22T22:52:03.532Z,25.80
2022-12-22T22:54:36.693Z,24.00
2022-12-22T22:57:08.595Z,21.40
2022-12-22T22:59:40.391Z,22.10
2022-12-22T23:02:12.303Z,22.70
2022-12-22T23:04:44.157Z,19.50
2022-12-22T23:07:15.887Z,20.60
2022-12-22T23:09:47.662Z,21.80
2022-12-22T23:12:19.483Z,22.00
2022-12-22T23:14:51.310Z,22.00
2022-12-22T23:17:23.160Z,23.20
2022-12-22T23:19:54.859Z,21.70
2022-12-22T23:22:26.793Z,21.30
2022-12-22T23:24:58.619Z,21.40
2022-12-22T23:27:32.074Z,21.20
2022-12-22T23:30:03.998Z,20.70
2022-12-22T23:32:35.655Z,21.20
2022-12-22T23:35:08.445Z,23.20
2022-12-22T23:37:41.257Z,22.20
2022-12-22T23:43:06.258Z,22.60
2022-12-22T23:45:39.350Z,24.40
2022-12-22T23:48:12.740Z,20.70
2022-12-22T23:50:47.839Z,23.60
2022-12-22T23:53:20.241Z,22.00
2022-12-22T23:55:52.686Z,22.70
2022-12-22T23:58:24.697Z,22.20
